Time;durP1;ratioP1;P1;durP2;ratioP2;P2;SDS_P1;SDS_P2;PMS_P1;PMS_P2;Temp;Humidity;BMP_temperature;BMP_pressure;BME280_temperature;BME280_humidity;BME280_pressure;Samples;Min_cycle;Max_cycle;Signal;HPM_P1;HPM_P2
2023/03/31 00:02:12;;;;;;;15.43;12.95;;;15.10;90.10;;;;;;6215708;23;20008;-82
2023/03/31 00:04:51;;;;;;;15.77;12.07;;;15.10;90.10;;;;;;6188720;23;20038;-81
2023/03/31 00:07:20;;;;;;;17.10;12.80;;;15.10;90.10;;;;;;6215924;23;20001;-81
2023/03/31 00:09:47;;;;;;;13.82;11.45;;;15.10;90.20;;;;;;6215575;23;20388;-81
2023/03/31 00:12:15;;;;;;;16.05;12.05;;;15.10;90.10;;;;;;6215480;23;20001;-81
2023/03/31 00:14:42;;;;;;;17.58;12.70;;;15.10;90.20;;;;;;6215433;23;20080;-81
2023/03/31 00:17:09;;;;;;;17.30;12.02;;;15.00;90.20;;;;;;6215662;23;20384;-81
2023/03/31 00:19:35;;;;;;;18.40;13.20;;;15.00;90.30;;;;;;6215526;23;20434;-81
2023/03/31 00:22:01;;;;;;;16.15;13.05;;;15.00;90.30;;;;;;6215563;23;20068;-82
2023/03/31 00:24:31;;;;;;;17.52;12.32;;;15.00;90.30;;;;;;6215256;23;20095;-82
2023/03/31 00:27:01;;;;;;;17.35;13.57;;;15.00;90.30;;;;;;6215472;23;20000;-81
2023/03/31 00:29:27;;;;;;;18.25;12.20;;;14.90;90.20;;;;;;6215507;23;20001;-82
2023/03/31 00:31:54;;;;;;;17.63;12.65;;;14.90;90.50;;;;;;6215443;23;20419;-81
2023/03/31 00:34:20;;;;;;;16.67;13.25;;;14.90;90.50;;;;;;6215529;23;19997;-82
2023/03/31 00:36:48;;;;;;;17.60;13.10;;;14.90;90.40;;;;;;6215215;23;20003;-82
2023/03/31 00:39:17;;;;;;;21.58;13.80;;;14.90;90.50;;;;;;6188610;23;20009;-81
2023/03/31 00:41:44;;;;;;;14.48;12.32;;;14.90;90.50;;;;;;6215709;23;20001;-82
2023/03/31 00:44:28;;;;;;;19.77;12.23;;;14.90;90.60;;;;;;6188452;23;20095;-81
2023/03/31 00:47:12;;;;;;;16.20;12.05;;;14.80;90.70;;;;;;6215207;23;20008;-81
2023/03/31 00:49:44;;;;;;;16.33;11.20;;;14.70;90.60;;;;;;6215337;23;20059;-81
2023/03/31 00:52:23;;;;;;;14.43;11.55;;;14.70;90.80;;;;;;6214761;23;20131;-81
2023/03/31 00:54:56;;;;;;;15.80;12.10;;;14.60;90.90;;;;;;6214841;23;19997;-82
2023/03/31 00:57:24;;;;;;;14.75;11.48;;;14.60;91.00;;;;;;6216081;23;20007;-82
2023/03/31 00:59:54;;;;;;;16.15;10.93;;;14.60;91.00;;;;;;6189727;23;20005;-82
2023/03/31 01:02:24;;;;;;;15.85;11.90;;;14.60;91.00;;;;;;6217219;23;20080;-82
2023/03/31 01:04:54;;;;;;;14.20;11.88;;;14.60;91.00;;;;;;6217296;23;20073;-82
2023/03/31 01:07:25;;;;;;;14.40;11.07;;;14.60;91.00;;;;;;6190348;23;20013;-81
2023/03/31 01:09:56;;;;;;;16.33;12.30;;;14.60;91.10;;;;;;6216421;23;20418;-82
2023/03/31 01:12:22;;;;;;;16.27;12.32;;;;;;;;;;6216324;23;20004;-82
2023/03/31 01:14:50;;;;;;;13.70;11.45;;;14.50;91.00;;;;;;6216689;23;20001;-82
2023/03/31 01:17:20;;;;;;;15.55;12.00;;;14.50;91.10;;;;;;6190639;23;20001;-81
2023/03/31 01:19:48;;;;;;;;;;;14.50;91.20;;;;;;6217747;23;20036;-81
2023/03/31 01:22:38;;;;;;;17.17;12.00;;;14.50;91.20;;;;;;6217058;23;20472;-81
2023/03/31 01:25:22;;;;;;;19.00;12.82;;;14.50;91.20;;;;;;6189773;23;20350;-81
2023/03/31 01:28:02;;;;;;;16.30;11.93;;;14.50;91.30;;;;;;6216556;23;20115;-81
2023/03/31 01:30:59;;;;;;;15.90;11.75;;;14.50;91.30;;;;;;6216922;23;20111;-81
2023/03/31 01:33:28;;;;;;;16.50;11.73;;;14.50;91.20;;;;;;6190241;23;20001;-82
2023/03/31 01:36:15;;;;;;;15.00;12.15;;;14.40;91.20;;;;;;6216586;23;19996;-82
2023/03/31 01:39:17;;;;;;;17.23;12.90;;;14.40;91.30;;;;;;6216976;23;20071;-82
2023/03/31 01:41:56;;;;;;;19.70;13.75;;;14.40;91.30;;;;;;6216633;23;20012;-81
2023/03/31 01:44:44;;;;;;;16.02;12.32;;;14.40;91.40;;;;;;6216385;23;20027;-81
2023/03/31 01:47:21;;;;;;;16.52;11.85;;;14.40;91.60;;;;;;6217076;23;20005;-81
2023/03/31 01:50:05;;;;;;;15.60;12.18;;;14.30;91.50;;;;;;6216880;23;20062;-81
2023/03/31 01:52:31;;;;;;;15.18;11.93;;;14.30;91.50;;;;;;6216757;23;20000;-81
2023/03/31 01:55:05;;;;;;;15.55;12.20;;;14.30;91.60;;;;;;6216984;23;20001;-82
2023/03/31 01:57:46;;;;;;;14.25;11.80;;;14.30;91.60;;;;;;6216966;23;20000;-81
2023/03/31 02:00:22;;;;;;;15.48;12.40;;;14.30;91.60;;;;;;6217073;23;20000;-81
2023/03/31 02:03:16;;;;;;;15.63;12.73;;;14.30;91.60;;;;;;6216308;23;20008;-81
2023/03/31 02:05:49;;;;;;;14.95;12.20;;;14.30;91.80;;;;;;6217091;23;20072;-82
2023/03/31 02:08:47;;;;;;;18.98;12.30;;;14.30;91.60;;;;;;6216157;23;20012;-82
2023/03/31 02:11:13;;;;;;;19.98;12.25;;;14.30;91.70;;;;;;6187807;23;20419;-82
2023/03/31 02:13:43;;;;;;;17.33;12.52;;;14.30;91.70;;;;;;6216075;23;20001;-82
2023/03/31 02:16:17;;;;;;;15.38;12.60;;;14.20;91.70;;;;;;6216620;23;19996;-81
2023/03/31 02:18:47;;;;;;;17.83;13.25;;;14.30;91.70;;;;;;6216386;23;20006;-81
2023/03/31 02:21:15;;;;;;;16.63;12.17;;;14.20;91.60;;;;;;6216733;23;20088;-81
2023/03/31 02:23:43;;;;;;;18.15;11.65;;;14.20;91.80;;;;;;6190093;23;20019;-81
2023/03/31 02:26:11;;;;;;;15.20;11.65;;;14.30;91.80;;;;;;6216352;23;20305;-82
2023/03/31 02:28:37;;;;;;;17.27;13.07;;;14.30;91.80;;;;;;6216172;23;20008;-82
2023/03/31 02:31:22;;;;;;;14.45;12.15;;;14.30;91.70;;;;;;6216819;23;20053;-82
2023/03/31 02:33:48;;;;;;;17.17;11.82;;;14.30;91.70;;;;;;6216463;23;20046;-82
2023/03/31 02:36:15;;;;;;;18.08;12.23;;;14.30;91.80;;;;;;6216134;23;20001;-81
2023/03/31 02:38:50;;;;;;;17.15;12.43;;;14.20;91.70;;;;;;6216209;23;20012;-81
2023/03/31 02:41:16;;;;;;;17.27;13.02;;;14.20;91.80;;;;;;6189707;23;20404;-81
2023/03/31 02:43:42;;;;;;;16.90;12.93;;;14.10;91.80;;;;;;6216365;23;20053;-80
2023/03/31 02:46:08;;;;;;;13.85;12.00;;;14.10;91.80;;;;;;6215902;23;20019;-82
2023/03/31 02:48:41;;;;;;;16.23;12.82;;;14.10;91.90;;;;;;6216186;23;20001;-81
2023/03/31 02:51:10;;;;;;;18.00;13.15;;;14.10;91.90;;;;;;6215972;23;20672;-82
2023/03/31 02:53:41;;;;;;;16.90;11.82;;;14.10;91.90;;;;;;6216086;23;20020;-81
2023/03/31 02:56:16;;;;;;;18.70;13.27;;;14.10;91.90;;;;;;6216152;23;20067;-81
2023/03/31 02:59:05;;;;;;;18.35;12.80;;;14.20;92.00;;;;;;6216118;23;20007;-81
2023/03/31 03:01:51;;;;;;;16.30;11.30;;;14.20;92.00;;;;;;6196139;23;20043;-80
2023/03/31 03:04:19;;;;;;;15.50;11.57;;;14.30;91.90;;;;;;6216384;23;20003;-80
2023/03/31 03:07:05;;;;;;;16.88;12.55;;;14.30;91.90;;;;;;6215580;23;20077;-81
2023/03/31 03:09:52;;;;;;;16.58;12.75;;;14.30;91.90;;;;;;6216098;23;20008;-81
2023/03/31 03:12:51;;;;;;;17.20;12.02;;;14.30;91.80;;;;;;6215688;23;20404;-81
2023/03/31 03:15:48;;;;;;;16.85;12.25;;;14.30;91.80;;;;;;6215767;23;20001;-81
2023/03/31 03:18:14;;;;;;;14.43;11.70;;;14.30;91.90;;;;;;6087026;23;20008;-80
2023/03/31 03:20:48;;;;;;;17.95;12.57;;;14.30;91.90;;;;;;6215695;23;20354;-80
2023/03/31 03:23:15;;;;;;;16.50;12.60;;;14.30;92.00;;;;;;6216133;23;20005;-81
2023/03/31 03:25:41;;;;;;;17.90;12.48;;;14.30;92.00;;;;;;6188777;23;20397;-81
2023/03/31 03:28:07;;;;;;;18.20;13.07;;;14.30;92.00;;;;;;6216039;23;20039;-81
2023/03/31 03:30:32;;;;;;;22.20;13.93;;;14.30;92.00;;;;;;6189386;23;20374;-81
2023/03/31 03:32:58;;;;;;;17.40;12.68;;;14.20;92.10;;;;;;6188803;23;20332;-81
2023/03/31 03:35:24;;;;;;;15.90;11.93;;;14.20;92.20;;;;;;6215044;23;19996;-81
2023/03/31 03:37:50;;;;;;;13.73;11.40;;;14.20;92.10;;;;;;6215302;23;20024;-81
2023/03/31 03:40:16;;;;;;;18.90;12.63;;;14.20;92.10;;;;;;6216051;23;20001;-80
2023/03/31 03:42:42;;;;;;;14.70;11.73;;;14.20;92.10;;;;;;6215744;23;20055;-81
2023/03/31 03:45:08;;;;;;;15.05;12.35;;;14.20;92.10;;;;;;6214938;23;20008;-80
2023/03/31 03:47:34;;;;;;;15.75;13.15;;;14.20;92.00;;;;;;6215638;23;20000;-80
2023/03/31 03:50:01;;;;;;;13.93;11.77;;;14.20;92.10;;;;;;6215267;23;20005;-81
2023/03/31 03:52:26;;;;;;;17.88;13.05;;;14.20;92.10;;;;;;6189089;23;20009;-80
2023/03/31 03:54:52;;;;;;;14.95;12.02;;;14.20;92.10;;;;;;6216027;23;20007;-81
2023/03/31 03:57:18;;;;;;;16.77;13.18;;;14.20;92.10;;;;;;6215517;23;20005;-81
2023/03/31 03:59:44;;;;;;;14.90;11.90;;;14.20;92.30;;;;;;6215702;23;20142;-82
2023/03/31 04:02:10;;;;;;;16.23;13.07;;;14.20;92.20;;;;;;6215732;23;20499;-82
2023/03/31 04:04:36;;;;;;;16.17;13.27;;;14.20;92.20;;;;;;6215544;23;20028;-81
2023/03/31 04:07:01;;;;;;;15.07;11.82;;;14.20;92.20;;;;;;6214641;23;20049;-82
2023/03/31 04:09:27;;;;;;;15.05;12.40;;;14.20;92.20;;;;;;6215572;23;20004;-80
2023/03/31 04:11:53;;;;;;;17.33;12.98;;;14.20;92.20;;;;;;6215280;23;20043;-81
2023/03/31 04:14:19;;;;;;;20.63;12.50;;;14.20;92.40;;;;;;6215821;23;19997;-81
2023/03/31 04:16:45;;;;;;;23.52;13.40;;;14.20;92.30;;;;;;6215283;23;20407;-81
2023/03/31 04:19:12;;;;;;;25.77;12.73;;;14.20;92.30;;;;;;6215273;23;20012;-81
2023/03/31 04:21:44;;;;;;;19.83;12.93;;;14.20;92.40;;;;;;6215006;23;20005;-80
2023/03/31 04:24:14;;;;;;;22.75;13.32;;;14.20;92.40;;;;;;6215532;23;20017;-81
2023/03/31 04:26:43;;;;;;;21.55;12.75;;;14.20;92.70;;;;;;6214601;23;20035;-82
2023/03/31 04:29:15;;;;;;;33.85;15.85;;;14.10;92.60;;;;;;6214846;23;20091;-82
2023/03/31 04:31:41;;;;;;;21.38;12.57;;;14.20;92.70;;;;;;6215261;23;20005;-82
2023/03/31 04:34:14;;;;;;;22.73;11.48;;;14.20;92.70;;;;;;6215249;23;20001;-83
2023/03/31 04:36:48;;;;;;;20.15;11.80;;;14.10;92.80;;;;;;6214799;23;20019;-82
2023/03/31 04:39:29;;;;;;;25.13;13.77;;;14.10;92.60;;;;;;6215463;23;20005;-82
2023/03/31 04:41:56;;;;;;;20.55;11.77;;;14.10;92.90;;;;;;6215355;23;20038;-80
2023/03/31 04:44:22;;;;;;;23.40;12.25;;;14.10;92.90;;;;;;6215932;23;20013;-80
2023/03/31 04:46:48;;;;;;;18.15;11.65;;;14.10;92.70;;;;;;6188924;23;20013;-81
2023/03/31 04:49:14;;;;;;;17.27;10.70;;;14.20;92.90;;;;;;6215033;23;20012;-81
2023/03/31 04:51:41;;;;;;;21.70;11.90;;;14.20;93.00;;;;;;6214755;23;20375;-82
2023/03/31 04:54:06;;;;;;;21.30;12.85;;;14.20;92.90;;;;;;6215205;23;20054;-81
2023/03/31 04:56:33;;;;;;;27.38;12.55;;;14.20;92.70;;;;;;6214398;23;20076;-82
2023/03/31 04:58:58;;;;;;;15.90;11.88;;;14.30;92.90;;;;;;6215044;23;20008;-81
2023/03/31 05:01:24;;;;;;;20.35;12.68;;;14.30;92.80;;;;;;6188605;23;20008;-82
2023/03/31 05:03:50;;;;;;;15.40;11.60;;;14.20;92.70;;;;;;6214445;23;20005;-82
2023/03/31 05:06:16;;;;;;;14.52;11.15;;;14.20;92.70;;;;;;6214454;23;20004;-80
2023/03/31 05:08:42;;;;;;;14.73;11.07;;;14.20;92.90;;;;;;6214959;23;20004;-80
2023/03/31 05:11:08;;;;;;;18.92;11.38;;;14.20;92.80;;;;;;6215211;23;20004;-80
2023/03/31 05:13:34;;;;;;;20.13;12.20;;;14.20;92.80;;;;;;6215261;23;19997;-81
2023/03/31 05:16:09;;;;;;;18.10;12.82;;;14.20;92.90;;;;;;6215006;23;20465;-80
2023/03/31 05:18:36;;;;;;;16.20;11.95;;;14.20;92.70;;;;;;6214777;23;20001;-80
2023/03/31 05:21:19;;;;;;;23.42;12.23;;;14.30;92.90;;;;;;6215253;23;19997;-81
2023/03/31 05:23:46;;;;;;;20.13;11.88;;;14.20;93.00;;;;;;6184707;23;20013;-80
2023/03/31 05:26:12;;;;;;;19.83;12.30;;;14.20;92.80;;;;;;6185920;23;20009;-80
2023/03/31 05:28:38;;;;;;;14.82;11.13;;;14.30;93.00;;;;;;6213627;23;20071;-80
2023/03/31 05:31:05;;;;;;;18.73;12.13;;;14.30;92.70;;;;;;6213377;23;20004;-81
2023/03/31 05:33:32;;;;;;;14.60;11.88;;;14.30;92.90;;;;;;6214559;23;20026;-81
2023/03/31 05:36:01;;;;;;;18.00;12.20;;;;;;;;;;6214276;23;19997;-81
2023/03/31 05:38:30;;;;;;;16.42;12.00;;;14.30;92.80;;;;;;6214991;23;20003;-82
2023/03/31 05:40:56;;;;;;;19.20;12.57;;;14.20;93.10;;;;;;6213863;23;19997;-82
2023/03/31 05:43:22;;;;;;;17.23;11.90;;;14.30;92.80;;;;;;6216157;23;20066;-80
2023/03/31 05:45:47;;;;;;;21.15;12.45;;;14.30;93.00;;;;;;6217077;23;20427;-79
2023/03/31 05:48:13;;;;;;;20.80;14.38;;;14.30;93.00;;;;;;6216898;23;20424;-79
2023/03/31 05:50:39;;;;;;;17.92;12.10;;;14.30;93.20;;;;;;6216144;23;20080;-80
2023/03/31 05:53:04;;;;;;;22.00;14.35;;;14.30;93.10;;;;;;6213289;23;20699;-81
2023/03/31 05:55:30;;;;;;;18.40;13.13;;;14.30;93.00;;;;;;6188425;23;20007;-81
2023/03/31 05:57:56;;;;;;;16.00;10.90;;;14.20;93.40;;;;;;6216079;23;20378;-81
2023/03/31 06:00:21;;;;;;;22.92;12.80;;;14.30;93.00;;;;;;6215480;23;20005;-79
2023/03/31 06:02:47;;;;;;;19.27;12.35;;;14.30;93.10;;;;;;6215644;23;20001;-79
2023/03/31 06:05:13;;;;;;;19.63;12.10;;;14.30;93.20;;;;;;6213762;23;20001;-78
2023/03/31 06:07:39;;;;;;;16.10;10.15;;;14.40;93.10;;;;;;6215361;23;20054;-78
2023/03/31 06:10:07;;;;;;;13.90;11.15;;;14.30;93.10;;;;;;6215090;23;20316;-78
2023/03/31 06:12:32;;;;;;;14.85;10.73;;;14.30;93.20;;;;;;6213981;23;20004;-77
2023/03/31 06:14:58;;;;;;;13.57;10.30;;;14.40;93.20;;;;;;6215160;23;20025;-76
2023/03/31 06:17:24;;;;;;;16.45;11.45;;;14.40;93.20;;;;;;6214562;23;19997;-76
2023/03/31 06:19:52;;;;;;;19.13;11.07;;;;;;;;;;6186773;22;20107;-79
2023/03/31 06:22:18;;;;;;;14.27;10.95;;;14.30;92.80;;;;;;6215795;23;20007;-79
2023/03/31 06:24:44;;;;;;;13.25;10.90;;;14.40;93.10;;;;;;6215930;23;20001;-78
2023/03/31 06:27:10;;;;;;;14.32;10.20;;;14.40;93.10;;;;;;6211833;23;20028;-77
2023/03/31 06:29:36;;;;;;;12.57;10.07;;;14.40;92.90;;;;;;6213727;23;20005;-77
2023/03/31 06:32:03;;;;;;;17.00;10.35;;;14.50;92.60;;;;;;6215460;23;20311;-76
2023/03/31 06:34:29;;;;;;;15.77;10.57;;;14.50;92.80;;;;;;6214711;23;20543;-77
2023/03/31 06:36:55;;;;;;;17.02;9.95;;;14.60;92.80;;;;;;6212563;23;20100;-77
2023/03/31 06:39:21;;;;;;;14.85;10.20;;;14.60;92.70;;;;;;6214100;23;20004;-76
2023/03/31 06:41:46;;;;;;;15.05;9.98;;;14.70;92.60;;;;;;6216195;23;20015;-77
2023/03/31 06:44:15;;;;;;;14.75;10.30;;;14.70;92.60;;;;;;6213669;23;20068;-77
2023/03/31 06:46:41;;;;;;;15.55;11.05;;;14.70;92.50;;;;;;6214450;23;20004;-79
2023/03/31 06:49:08;;;;;;;13.90;10.00;;;;;;;;;;6215818;23;20008;-83
2023/03/31 06:51:33;;;;;;;15.27;11.20;;;14.60;92.30;;;;;;6216373;23;20023;-81
2023/03/31 06:53:59;;;;;;;16.17;10.13;;;14.70;92.50;;;;;;6216014;23;20327;-82
2023/03/31 06:56:26;;;;;;;18.63;10.10;;;14.70;92.50;;;;;;6216428;23;20007;-82
2023/03/31 06:58:51;;;;;;;12.77;9.27;;;14.80;92.20;;;;;;6217015;23;20105;-85
2023/03/31 07:01:17;;;;;;;15.73;10.55;;;14.80;92.10;;;;;;6214853;23;20000;-86
2023/03/31 07:03:43;;;;;;;18.55;9.60;;;14.80;92.30;;;;;;6239555;23;20088;-81
2023/03/31 07:06:08;;;;;;;15.95;9.98;;;14.90;92.20;;;;;;6216217;23;19996;-83
2023/03/31 07:08:35;;;;;;;14.10;10.88;;;14.90;92.20;;;;;;6215911;23;20407;-81
2023/03/31 07:11:01;;;;;;;13.63;10.10;;;14.90;92.10;;;;;;6216040;23;20027;-83
2023/03/31 07:13:28;;;;;;;15.00;11.25;;;;;;;;;;6216578;23;20007;-84
2023/03/31 07:15:54;;;;;;;18.02;10.50;;;15.00;91.80;;;;;;6215169;23;20043;-83
2023/03/31 07:18:24;;;;;;;15.45;10.02;;;15.00;92.00;;;;;;6216108;23;20000;-84
2023/03/31 07:20:50;;;;;;;11.98;8.98;;;15.00;92.00;;;;;;6233720;23;20012;-83
2023/03/31 07:23:16;;;;;;;18.60;11.20;;;;;;;;;;6246004;23;20015;-82
2023/03/31 07:25:42;;;;;;;13.07;9.18;;;15.10;91.70;;;;;;6246201;23;20000;-82
2023/03/31 07:28:08;;;;;;;13.65;10.23;;;15.10;91.80;;;;;;6246058;23;20641;-82
2023/03/31 07:30:34;;;;;;;13.68;9.52;;;15.10;91.70;;;;;;6246190;23;20016;-82
2023/03/31 07:33:01;;;;;;;13.05;9.77;;;15.20;91.70;;;;;;6246575;23;20028;-82
2023/03/31 07:35:26;;;;;;;14.13;9.65;;;15.20;91.50;;;;;;6246449;23;20071;-83
2023/03/31 07:37:53;;;;;;;15.88;10.48;;;;;;;;;;6246306;23;20505;-84
2023/03/31 07:40:25;;;;;;;15.80;10.15;;;15.20;91.30;;;;;;6242402;23;20004;-79
2023/03/31 07:42:51;;;;;;;15.57;10.68;;;;;;;;;;6243430;23;20342;-77
2023/03/31 07:45:23;;;;;;;15.57;10.55;;;15.20;91.40;;;;;;6249907;23;20038;-77
2023/03/31 07:47:49;;;;;;;15.23;9.80;;;15.10;91.40;;;;;;6249122;23;20468;-79
2023/03/31 07:50:22;;;;;;;14.93;9.85;;;15.20;91.30;;;;;;6246284;23;20004;-77
2023/03/31 07:52:48;;;;;;;15.05;10.23;;;15.20;91.30;;;;;;6245882;23;20007;-78
2023/03/31 07:55:15;;;;;;;16.55;11.05;;;;;;;;;;6218739;23;20051;-78
2023/03/31 07:57:44;;;;;;;19.08;11.57;;;15.30;91.40;;;;;;6245941;23;20492;-78
2023/03/31 08:00:11;;;;;;;15.60;11.30;;;15.30;91.40;;;;;;6246184;23;20000;-77
2023/03/31 08:02:41;;;;;;;16.42;11.02;;;15.30;91.40;;;;;;6246090;23;20004;-78
2023/03/31 08:05:08;;;;;;;19.13;11.95;;;15.30;91.40;;;;;;6218325;23;20079;-82
2023/03/31 08:07:36;;;;;;;19.77;12.43;;;15.30;91.60;;;;;;6246373;23;20011;-83
2023/03/31 08:10:10;;;;;;;21.55;13.60;;;15.40;91.40;;;;;;6245271;23;20027;-82
2023/03/31 08:12:36;;;;;;;21.77;15.05;;;15.40;91.40;;;;;;6246055;23;19996;-82
2023/03/31 08:15:05;;;;;;;22.58;15.95;;;15.40;91.30;;;;;;6245776;23;20008;-82
2023/03/31 08:17:31;;;;;;;19.30;13.97;;;15.40;91.30;;;;;;6245783;23;19996;-82
2023/03/31 08:19:57;;;;;;;19.63;13.93;;;15.40;91.40;;;;;;6245885;23;20027;-83
2023/03/31 08:22:22;;;;;;;21.88;13.32;;;15.40;91.60;;;;;;6246226;23;20421;-82
2023/03/31 08:24:48;;;;;;;20.85;14.40;;;;;;;;;;6245813;23;20374;-83
2023/03/31 08:27:14;;;;;;;18.60;12.65;;;15.40;91.50;;;;;;6218005;23;20066;-84
2023/03/31 08:29:40;;;;;;;20.50;13.25;;;15.40;91.70;;;;;;6244265;23;20008;-83
2023/03/31 08:32:06;;;;;;;20.38;14.32;;;15.40;91.70;;;;;;6244973;23;20456;-82
2023/03/31 08:34:32;;;;;;;20.08;15.20;;;15.40;91.60;;;;;;6243270;23;20071;-82
2023/03/31 08:36:58;;;;;;;20.60;14.07;;;;;;;;;;6245616;23;20083;-84
2023/03/31 08:39:24;;;;;;;24.40;14.85;;;;;;;;;;6218820;23;20038;-83
2023/03/31 08:41:50;;;;;;;19.05;14.38;;;;;;;;;;6245761;23;20083;-81
2023/03/31 08:44:31;;;;;;;18.50;14.52;;;15.50;91.60;;;;;;6245068;23;20032;-77
2023/03/31 08:47:01;;;;;;;20.20;14.40;;;;;;;;;;6245400;23;20004;-80
2023/03/31 08:49:30;;;;;;;;;;;15.50;91.60;;;;;;6245183;23;20008;-77
2023/03/31 08:52:00;;;;;;;21.58;14.55;;;15.50;91.70;;;;;;6215535;23;20038;-77
2023/03/31 08:54:26;;;;;;;20.27;14.75;;;;;;;;;;6214435;23;20142;-77
2023/03/31 08:56:52;;;;;;;20.58;14.30;;;15.60;91.60;;;;;;6217926;23;20000;-76
2023/03/31 08:59:36;;;;;;;21.15;16.35;;;15.60;91.70;;;;;;6244012;23;20075;-77
2023/03/31 09:02:14;;;;;;;29.17;18.52;;;15.60;91.50;;;;;;6246017;23;20000;-75
2023/03/31 09:05:08;;;;;;;29.80;17.63;;;15.60;91.50;;;;;;6245965;23;20058;-83
2023/03/31 09:07:42;;;;;;;30.13;17.55;;;15.60;91.60;;;;;;6246342;23;20000;-84
2023/03/31 09:10:08;;;;;;;24.23;17.33;;;;;;;;;;6245766;23;20000;-84
2023/03/31 09:12:39;;;;;;;22.88;17.55;;;;;;;;;;6246206;23;20080;-84
2023/03/31 09:15:13;;;;;;;;;;;15.60;91.50;;;;;;6246915;23;20004;-84
2023/03/31 09:17:44;;;;;;;27.02;18.40;;;15.60;91.50;;;;;;6247281;23;19915;-78
2023/03/31 09:20:35;;;;;;;26.90;17.63;;;15.60;91.70;;;;;;6247297;23;20061;-77
2023/03/31 09:23:11;;;;;;;28.92;17.63;;;15.70;91.50;;;;;;6229326;23;20373;-78
2023/03/31 09:25:40;;;;;;;28.98;18.88;;;15.70;91.70;;;;;;6246618;23;20004;-77
2023/03/31 09:28:11;;;;;;;24.70;18.85;;;;;;;;;;6247610;23;20027;-77
2023/03/31 09:30:39;;;;;;;27.17;18.85;;;15.90;91.40;;;;;;6247332;23;20000;-77
2023/03/31 09:33:16;;;;;;;31.05;19.75;;;15.90;91.50;;;;;;6247280;23;20000;-77
2023/03/31 09:35:42;;;;;;;29.00;19.42;;;15.90;91.40;;;;;;6247429;23;20019;-77
2023/03/31 09:38:12;;;;;;;35.28;20.35;;;16.00;91.40;;;;;;6246994;23;20556;-77
2023/03/31 09:40:38;;;;;;;;;;;16.00;91.30;;;;;;6246542;23;20020;-77
2023/03/31 09:43:18;;;;;;;36.58;21.25;;;16.00;91.20;;;;;;6220433;23;19900;-77
2023/03/31 09:45:44;;;;;;;29.17;18.90;;;15.90;91.20;;;;;;6246988;23;20075;-79
2023/03/31 09:48:15;;;;;;;27.90;19.20;;;16.00;91.10;;;;;;6247035;23;20449;-75
2023/03/31 09:51:00;;;;;;;27.70;18.35;;;16.10;91.20;;;;;;6247119;23;20000;-78
2023/03/31 09:53:38;;;;;;;29.60;19.08;;;16.10;91.40;;;;;;6247818;23;20020;-79
2023/03/31 09:56:10;;;;;;;37.75;20.13;;;16.20;91.30;;;;;;6247696;23;20003;-78
2023/03/31 09:58:45;;;;;;;29.55;18.25;;;16.30;91.20;;;;;;6220545;23;20004;-78
2023/03/31 10:01:13;;;;;;;28.10;19.70;;;16.30;91.10;;;;;;6247637;23;20053;-79
2023/03/31 10:03:49;;;;;;;31.73;18.98;;;16.40;91.00;;;;;;6247448;23;20383;-78
2023/03/31 10:06:16;;;;;;;34.03;19.50;;;16.40;90.90;;;;;;6247028;23;20003;-79
2023/03/31 10:08:46;;;;;;;30.17;19.50;;;16.40;90.90;;;;;;6247700;23;20000;-77
2023/03/31 10:11:13;;;;;;;23.38;18.40;;;16.50;90.80;;;;;;6247641;23;19992;-77
2023/03/31 10:13:52;;;;;;;28.00;18.25;;;16.40;90.50;;;;;;6247714;23;20001;-78
2023/03/31 10:16:21;;;;;;;26.25;19.00;;;16.40;90.40;;;;;;6242346;23;20004;-77
2023/03/31 10:18:48;;;;;;;25.02;17.60;;;16.50;90.60;;;;;;6246816;23;20008;-76
2023/03/31 10:21:25;;;;;;;27.88;19.33;;;16.50;90.40;;;;;;6246570;23;20012;-77
2023/03/31 10:23:52;;;;;;;33.15;19.88;;;16.50;90.60;;;;;;6220019;23;20007;-76
2023/03/31 10:26:25;;;;;;;29.20;19.83;;;16.60;90.60;;;;;;6246582;23;20027;-77
2023/03/31 10:28:51;;;;;;;30.17;20.63;;;16.70;90.60;;;;;;6245987;23;20326;-77
2023/03/31 10:31:18;;;;;;;26.48;20.63;;;16.70;90.40;;;;;;6247164;23;20123;-77
2023/03/31 10:33:47;;;;;;;30.27;21.40;;;16.80;90.40;;;;;;6247080;23;20410;-77
2023/03/31 10:36:27;;;;;;;30.30;20.48;;;16.80;90.30;;;;;;6246210;23;20000;-78
2023/03/31 10:38:53;;;;;;;27.30;20.73;;;16.80;90.30;;;;;;6246920;23;19996;-78
2023/03/31 10:41:22;;;;;;;25.67;20.45;;;16.90;90.00;;;;;;6246621;23;20008;-77
2023/03/31 10:43:51;;;;;;;27.63;20.38;;;17.00;90.20;;;;;;6219886;23;20339;-77
2023/03/31 10:46:16;;;;;;;25.50;18.58;;;17.00;90.00;;;;;;6246358;23;20000;-79
2023/03/31 10:48:43;;;;;;;26.70;18.13;;;17.00;89.00;;;;;;6243862;23;20004;-76
2023/03/31 10:51:20;;;;;;;26.17;18.52;;;17.10;88.90;;;;;;6245976;23;20000;-77
2023/03/31 10:53:47;;;;;;;27.88;18.88;;;17.10;89.30;;;;;;6245890;23;20444;-78
2023/03/31 10:56:52;;;;;;;29.98;19.25;;;17.20;89.00;;;;;;6219756;23;20008;-76
2023/03/31 10:59:28;;;;;;;25.58;17.23;;;17.20;88.50;;;;;;6093870;23;20006;-77
2023/03/31 11:02:15;;;;;;;28.58;17.27;;;17.20;88.10;;;;;;6229183;23;20008;-77
2023/03/31 11:05:14;;;;;;;22.40;16.27;;;17.30;87.20;;;;;;6246278;23;20047;-78
2023/03/31 11:07:58;;;;;;;30.63;17.85;;;17.30;87.70;;;;;;6163758;23;20008;-77
2023/03/31 11:10:32;;;;;;;22.55;16.52;;;17.50;87.10;;;;;;6246440;23;20445;-77
2023/03/31 11:13:13;;;;;;;31.10;18.63;;;17.50;87.40;;;;;;6246487;23;20000;-77
2023/03/31 11:15:55;;;;;;;23.60;16.25;;;17.60;86.30;;;;;;6246069;23;20000;-77
2023/03/31 11:18:31;;;;;;;24.80;17.25;;;17.60;86.80;;;;;;6247349;23;20438;-77
2023/03/31 11:21:10;;;;;;;26.05;17.15;;;17.70;85.80;;;;;;6246549;23;20022;-76
2023/03/31 11:23:48;;;;;;;25.95;17.73;;;17.70;85.60;;;;;;6246933;23;20403;-76
2023/03/31 11:26:32;;;;;;;22.42;16.63;;;17.70;85.90;;;;;;6246894;23;20008;-76
2023/03/31 11:29:15;;;;;;;24.35;17.42;;;17.70;86.00;;;;;;6246671;23;20009;-77
2023/03/31 11:31:55;;;;;;;24.58;16.95;;;17.70;86.20;;;;;;6219471;23;20000;-77
2023/03/31 11:34:21;;;;;;;24.48;17.45;;;17.80;86.30;;;;;;6247194;23;20003;-77
2023/03/31 11:37:12;;;;;;;22.25;16.15;;;17.80;86.30;;;;;;6246586;23;20315;-77
2023/03/31 11:40:07;;;;;;;21.70;16.63;;;17.80;86.20;;;;;;6227685;23;20063;-77
2023/03/31 11:42:44;;;;;;;20.98;15.43;;;17.90;86.00;;;;;;6246638;23;20000;-77
2023/03/31 11:45:24;;;;;;;18.48;14.25;;;17.90;83.40;;;;;;6246642;23;20004;-78
2023/03/31 11:47:53;;;;;;;19.00;12.13;;;17.90;83.80;;;;;;6245821;23;20007;-77
2023/03/31 11:50:23;;;;;;;17.90;12.40;;;17.90;84.20;;;;;;6245854;23;20067;-78
2023/03/31 11:52:53;;;;;;;;;;;18.00;85.40;;;;;;6247075;23;20076;-78
2023/03/31 11:55:24;;;;;;;18.90;13.02;;;18.00;83.50;;;;;;6246223;23;20289;-76
2023/03/31 11:57:50;;;;;;;20.60;14.90;;;18.10;83.40;;;;;;6219360;23;20329;-77
2023/03/31 12:00:21;;;;;;;24.60;14.52;;;18.10;84.00;;;;;;6219184;23;20027;-78
2023/03/31 12:03:08;;;;;;;18.88;14.18;;;18.20;83.80;;;;;;6246343;23;20004;-77
2023/03/31 12:05:39;;;;;;;24.05;15.65;;;18.30;82.90;;;;;;6246752;23;20372;-78
2023/03/31 12:08:21;;;;;;;20.08;15.05;;;18.40;82.90;;;;;;6246690;23;20423;-77
2023/03/31 12:10:59;;;;;;;23.85;15.88;;;18.40;83.30;;;;;;6246136;23;20083;-78
2023/03/31 12:13:43;;;;;;;26.02;16.05;;;18.50;83.70;;;;;;6245661;23;20076;-78
2023/03/31 12:16:18;;;;;;;24.27;16.88;;;18.50;83.60;;;;;;6245674;23;20424;-78
2023/03/31 12:19:15;;;;;;;20.98;15.70;;;18.60;83.70;;;;;;6246453;23;20119;-77
2023/03/31 12:21:47;;;;;;;18.90;13.90;;;18.60;83.50;;;;;;6246680;23;20086;-78
2023/03/31 12:24:13;;;;;;;22.65;15.50;;;18.60;83.30;;;;;;6239886;23;20023;-78
2023/03/31 12:26:50;;;;;;;24.98;15.85;;;18.60;82.70;;;;;;6245636;23;20422;-77
2023/03/31 12:29:36;;;;;;;21.10;14.18;;;18.60;82.60;;;;;;6243853;23;20010;-78
2023/03/31 12:32:07;;;;;;;21.92;16.10;;;18.60;82.40;;;;;;6245366;23;20000;-78
2023/03/31 12:34:37;;;;;;;23.83;15.95;;;18.60;83.00;;;;;;6246381;23;19996;-79
2023/03/31 12:37:23;;;;;;;24.35;16.88;;;18.60;82.60;;;;;;6219363;23;20062;-76
2023/03/31 12:40:10;;;;;;;21.67;16.85;;;18.70;83.10;;;;;;6246031;23;20422;-78
2023/03/31 12:43:02;;;;;;;24.65;16.38;;;18.70;83.00;;;;;;6219297;23;20008;-78
2023/03/31 12:45:53;;;;;;;22.67;16.77;;;18.80;82.90;;;;;;6245759;23;20004;-78
2023/03/31 12:48:43;;;;;;;26.73;17.48;;;18.70;82.90;;;;;;6246601;23;20004;-78
2023/03/31 12:51:21;;;;;;;22.98;17.20;;;18.80;82.80;;;;;;6246468;23;20011;-77
2023/03/31 12:54:21;;;;;;;22.42;16.75;;;18.90;83.10;;;;;;6248272;23;20000;-79
2023/03/31 12:57:10;;;;;;;;;;;18.90;82.90;;;;;;6247180;23;20004;-77
2023/03/31 12:59:38;;;;;;;24.13;14.77;;;18.90;83.20;;;;;;6223792;23;19947;-77